createdAt,value
2023-02-23T00:02:07.972Z,12.17
2023-02-23T00:04:36.261Z,11.23
2023-02-23T00:07:03.812Z,12.03
2023-02-23T00:09:36.003Z,12.20
2023-02-23T00:12:09.173Z,12.33
2023-02-23T00:14:38.205Z,11.37
2023-02-23T00:17:14.902Z,13.60
2023-02-23T00:19:44.101Z,12.63
2023-02-23T00:22:12.179Z,13.80
2023-02-23T00:24:40.739Z,12.17
2023-02-23T00:27:07.662Z,15.23
2023-02-23T00:29:39.694Z,13.63
2023-02-23T00:32:07.128Z,13.50
2023-02-23T00:34:35.958Z,13.83
2023-02-23T00:37:02.883Z,11.70
2023-02-23T00:39:29.851Z,12.10
2023-02-23T00:42:03.475Z,14.10
2023-02-23T00:44:32.705Z,14.40
2023-02-23T00:47:01.042Z,13.73
2023-02-23T00:49:28.199Z,14.87
2023-02-23T00:51:55.120Z,16.37
2023-02-23T00:54:22.663Z,18.00
2023-02-23T00:56:50.601Z,15.93
2023-02-23T00:59:19.247Z,12.20
2023-02-23T01:01:46.258Z,13.57
2023-02-23T01:04:14.106Z,21.20
2023-02-23T01:06:42.926Z,20.63
2023-02-23T01:09:22.097Z,15.53
2023-02-23T01:11:49.132Z,15.07
2023-02-23T01:14:16.117Z,15.23
2023-02-23T01:16:43.212Z,14.40
2023-02-23T01:19:11.114Z,15.63
2023-02-23T01:21:42.591Z,13.30
2023-02-23T01:24:10.608Z,12.33
2023-02-23T01:26:41.202Z,14.63
2023-02-23T01:29:18.414Z,12.20
2023-02-23T01:31:51.384Z,12.50
2023-02-23T01:34:24.323Z,13.33
2023-02-23T01:36:51.375Z,11.87
2023-02-23T01:39:20.863Z,13.80
2023-02-23T01:41:48.539Z,12.83
2023-02-23T01:44:15.452Z,11.63
2023-02-23T01:46:46.150Z,14.03
2023-02-23T01:49:22.053Z,16.03
2023-02-23T01:52:03.763Z,15.37
2023-02-23T01:54:54.088Z,16.50
2023-02-23T01:57:25.093Z,18.13
2023-02-23T01:59:54.093Z,15.67
2023-02-23T02:02:27.855Z,16.70
2023-02-23T02:04:56.619Z,15.30
2023-02-23T02:07:27.843Z,14.60
2023-02-23T02:10:17.266Z,15.40
2023-02-23T02:12:53.321Z,13.87
2023-02-23T02:15:26.266Z,18.13
2023-02-23T02:18:18.860Z,14.10
2023-02-23T02:21:11.814Z,15.47
2023-02-23T02:24:02.813Z,17.47
2023-02-23T02:26:53.979Z,16.07
2023-02-23T02:30:27.520Z,16.47
2023-02-23T02:33:11.443Z,12.60
2023-02-23T02:36:27.529Z,14.37
2023-02-23T02:39:10.710Z,14.50
2023-02-23T02:42:02.736Z,17.93
2023-02-23T02:45:09.091Z,19.27
2023-02-23T02:47:58.928Z,14.73
2023-02-23T02:50:50.579Z,17.47
2023-02-23T02:53:46.298Z,15.00
2023-02-23T02:56:21.934Z,14.87
2023-02-23T02:58:50.456Z,15.27
2023-02-23T03:01:37.626Z,16.50
2023-02-23T03:04:41.062Z,20.77
2023-02-23T03:08:04.088Z,17.80
2023-02-23T03:11:25.430Z,18.10
2023-02-23T03:14:34.916Z,16.33
2023-02-23T03:17:26.411Z,15.63
2023-02-23T03:21:09.443Z,15.40
2023-02-23T03:23:58.045Z,15.03
2023-02-23T03:26:51.199Z,17.30
2023-02-23T03:30:02.066Z,14.40
2023-02-23T03:33:04.883Z,15.47
2023-02-23T03:36:26.746Z,16.43
2023-02-23T03:39:34.441Z,15.00
2023-02-23T03:42:24.347Z,18.37
2023-02-23T03:45:13.612Z,16.27
2023-02-23T03:48:02.358Z,16.43
2023-02-23T03:51:00.879Z,19.10
2023-02-23T03:53:58.774Z,17.67
2023-02-23T03:56:46.894Z,14.10
2023-02-23T03:59:36.336Z,16.43
2023-02-23T04:02:23.960Z,18.10
2023-02-23T04:05:11.556Z,14.40
2023-02-23T04:07:59.931Z,16.30
2023-02-23T04:10:50.451Z,18.33
2023-02-23T04:13:27.314Z,15.53
2023-02-23T04:16:04.298Z,16.90
2023-02-23T04:18:35.540Z,18.20
2023-02-23T04:21:04.579Z,16.30
2023-02-23T04:23:32.504Z,15.10
2023-02-23T04:25:59.662Z,14.83
2023-02-23T04:28:28.243Z,14.87
2023-02-23T04:30:55.407Z,15.90
2023-02-23T04:33:24.271Z,14.83
2023-02-23T04:35:54.261Z,16.27
2023-02-23T04:38:23.038Z,17.27
2023-02-23T04:40:50.764Z,17.10
2023-02-23T04:43:18.094Z,18.07
2023-02-23T04:45:45.965Z,17.60
2023-02-23T04:48:13.040Z,17.30
2023-02-23T04:50:39.996Z,22.13
2023-02-23T04:53:07.259Z,15.80
2023-02-23T04:55:34.380Z,16.63
2023-02-23T04:58:02.740Z,17.97
2023-02-23T05:00:31.682Z,18.00
2023-02-23T05:02:59.164Z,17.37
2023-02-23T05:05:26.373Z,18.20
2023-02-23T05:07:54.659Z,21.23
2023-02-23T05:10:21.780Z,19.53
2023-02-23T05:12:48.857Z,17.63
2023-02-23T05:15:16.594Z,17.73
2023-02-23T05:17:43.547Z,17.17
2023-02-23T05:20:13.282Z,17.00
2023-02-23T05:22:40.986Z,20.97
2023-02-23T05:25:10.411Z,19.40
2023-02-23T05:27:38.865Z,20.47
2023-02-23T05:30:08.240Z,20.03
2023-02-23T05:32:35.415Z,19.03
2023-02-23T05:35:03.576Z,18.03
2023-02-23T05:37:30.897Z,16.27
2023-02-23T05:39:57.885Z,18.57
2023-02-23T05:42:24.894Z,17.63
2023-02-23T05:44:52.012Z,19.80
2023-02-23T05:47:19.071Z,17.53
2023-02-23T05:49:46.578Z,17.13
2023-02-23T05:52:13.670Z,19.47
2023-02-23T05:54:40.657Z,23.10
2023-02-23T05:57:08.603Z,18.53
2023-02-23T05:59:35.804Z,16.43
2023-02-23T06:02:05.708Z,20.53
2023-02-23T06:04:33.632Z,19.30
2023-02-23T06:07:00.621Z,27.33
2023-02-23T06:09:27.623Z,24.87
2023-02-23T06:11:54.520Z,22.70
2023-02-23T06:14:21.533Z,25.93
2023-02-23T06:16:48.993Z,22.30
2023-02-23T06:19:16.033Z,21.73
2023-02-23T06:21:42.973Z,21.70
2023-02-23T06:24:10.522Z,22.13
2023-02-23T06:26:37.433Z,23.20
2023-02-23T06:29:04.658Z,21.67
2023-02-23T06:31:31.577Z,22.70
2023-02-23T06:33:58.644Z,22.83
2023-02-23T06:36:25.564Z,23.87
2023-02-23T06:39:00.117Z,21.83
2023-02-23T06:41:27.385Z,24.40
2023-02-23T06:43:54.331Z,25.30
2023-02-23T06:46:21.836Z,25.60
2023-02-23T06:48:48.863Z,26.77
2023-02-23T06:51:15.859Z,22.50
2023-02-23T06:53:42.838Z,24.70
2023-02-23T06:56:11.593Z,19.40
2023-02-23T06:58:40.311Z,23.77
2023-02-23T07:01:07.314Z,24.40
2023-02-23T07:03:35.523Z,24.10
2023-02-23T07:06:05.790Z,22.40
2023-02-23T07:08:34.456Z,20.67
2023-02-23T07:11:13.861Z,22.63
2023-02-23T07:13:40.997Z,23.30
2023-02-23T07:16:08.608Z,23.27
2023-02-23T07:18:35.618Z,24.30
2023-02-23T07:21:02.536Z,22.03
2023-02-23T07:23:29.569Z,18.73
2023-02-23T07:26:01.059Z,18.70
2023-02-23T07:28:29.198Z,23.43
2023-02-23T07:30:57.846Z,26.47
2023-02-23T07:33:25.726Z,29.30
2023-02-23T07:35:52.889Z,23.33
2023-02-23T07:38:19.995Z,28.23
2023-02-23T07:40:46.967Z,24.83
2023-02-23T07:43:13.878Z,22.07
2023-02-23T07:45:42.207Z,20.13
2023-02-23T07:48:09.941Z,22.10
2023-02-23T07:50:36.844Z,21.80
2023-02-23T07:53:04.175Z,20.53
2023-02-23T07:55:31.085Z,24.87
2023-02-23T07:57:58.021Z,22.93
2023-02-23T08:00:25.363Z,23.37
2023-02-23T08:02:53.492Z,23.07
2023-02-23T08:05:20.676Z,27.10
2023-02-23T08:07:48.179Z,24.27
2023-02-23T08:10:15.158Z,26.67
2023-02-23T08:12:42.027Z,26.23
2023-02-23T08:15:10.500Z,24.27
2023-02-23T08:17:39.027Z,22.90
2023-02-23T08:20:08.037Z,23.07
2023-02-23T08:22:48.485Z,25.67
2023-02-23T08:25:18.077Z,23.73
2023-02-23T08:27:45.861Z,21.43
2023-02-23T08:30:14.488Z,26.00
2023-02-23T08:32:41.883Z,21.17
2023-02-23T08:35:10.685Z,22.17
2023-02-23T08:37:37.791Z,21.63
2023-02-23T08:40:05.497Z,23.03
2023-02-23T08:42:32.616Z,20.73
2023-02-23T08:45:01.462Z,23.83
2023-02-23T08:47:28.646Z,24.30
2023-02-23T08:49:55.601Z,25.87
2023-02-23T08:52:22.797Z,21.83
2023-02-23T08:54:49.691Z,22.57
2023-02-23T08:57:17.844Z,20.87
2023-02-23T08:59:44.810Z,19.47
2023-02-23T09:02:14.053Z,26.27
2023-02-23T09:04:42.340Z,22.37
2023-02-23T09:07:15.099Z,22.53
2023-02-23T09:09:42.400Z,25.87
2023-02-23T09:12:09.612Z,21.80
2023-02-23T09:14:37.562Z,24.10
2023-02-23T09:17:04.561Z,24.57
2023-02-23T09:19:31.957Z,31.17
2023-02-23T09:21:58.920Z,23.70
2023-02-23T09:24:25.827Z,24.00
2023-02-23T09:26:54.140Z,26.77
2023-02-23T09:29:21.530Z,25.93
2023-02-23T09:31:48.717Z,30.90
2023-02-23T09:34:15.660Z,27.50
2023-02-23T09:36:42.565Z,23.37
2023-02-23T09:39:09.630Z,26.80
2023-02-23T09:41:45.524Z,27.00
2023-02-23T09:44:18.829Z,25.50
2023-02-23T09:46:54.876Z,21.90
2023-02-23T09:49:27.436Z,21.63
2023-02-23T09:51:59.281Z,28.13
2023-02-23T09:54:33.518Z,27.27
2023-02-23T09:57:12.883Z,22.33
2023-02-23T09:59:40.760Z,28.40
2023-02-23T10:02:53.622Z,24.80
2023-02-23T10:05:24.246Z,27.37
2023-02-23T10:08:03.180Z,32.90
2023-02-23T10:11:03.549Z,28.03
2023-02-23T10:13:48.479Z,27.40
2023-02-23T10:16:45.043Z,24.03
2023-02-23T10:19:44.726Z,27.33
2023-02-23T10:22:15.856Z,28.87
2023-02-23T10:24:46.504Z,25.73
2023-02-23T10:27:24.631Z,28.53
2023-02-23T10:29:58.799Z,26.10
2023-02-23T10:32:50.826Z,25.17
2023-02-23T10:35:22.020Z,26.63
2023-02-23T10:37:51.127Z,25.27
2023-02-23T10:40:25.195Z,25.60
2023-02-23T10:42:53.091Z,25.37
2023-02-23T10:45:26.729Z,23.47
2023-02-23T10:48:27.829Z,30.33
2023-02-23T10:51:03.239Z,26.00
2023-02-23T10:53:37.700Z,29.17
2023-02-23T10:56:13.871Z,26.90
2023-02-23T10:58:52.353Z,30.27
2023-02-23T11:01:46.284Z,25.70
2023-02-23T11:04:30.736Z,25.17
2023-02-23T11:07:29.681Z,23.67
2023-02-23T11:10:24.880Z,26.10
2023-02-23T11:12:52.024Z,27.70
2023-02-23T11:15:32.002Z,27.87
2023-02-23T11:18:06.222Z,27.77
2023-02-23T11:20:40.620Z,24.53
2023-02-23T11:23:32.317Z,24.43
2023-02-23T11:26:02.871Z,29.07
2023-02-23T11:28:42.335Z,27.13
2023-02-23T11:31:20.578Z,24.50
2023-02-23T11:33:50.378Z,25.00
2023-02-23T11:36:34.502Z,24.43
2023-02-23T11:39:24.787Z,29.23
2023-02-23T11:42:20.702Z,30.30
2023-02-23T11:45:20.816Z,29.03
2023-02-23T11:47:54.748Z,24.73
2023-02-23T11:50:30.360Z,28.67
2023-02-23T11:53:04.929Z,27.80
2023-02-23T11:55:34.242Z,27.23
2023-02-23T11:58:27.757Z,26.37
2023-02-23T12:01:14.344Z,27.40
2023-02-23T12:03:55.300Z,26.63
2023-02-23T12:06:30.697Z,26.70
2023-02-23T12:09:28.579Z,27.67
2023-02-23T12:12:09.634Z,30.60
2023-02-23T12:14:57.522Z,27.97
2023-02-23T12:17:29.541Z,26.83
2023-02-23T12:20:11.410Z,31.63
2023-02-23T12:22:44.786Z,33.27
2023-02-23T12:25:40.638Z,28.97
2023-02-23T12:28:30.260Z,30.50
2023-02-23T12:31:44.849Z,25.50
2023-02-23T12:34:23.855Z,31.10
2023-02-23T12:37:37.195Z,24.50
2023-02-23T12:40:31.171Z,25.83
2023-02-23T12:43:26.401Z,31.83
2023-02-23T12:46:00.120Z,29.87
2023-02-23T12:48:50.209Z,30.93
2023-02-23T12:51:34.022Z,29.53
2023-02-23T12:54:02.059Z,27.00
2023-02-23T12:56:54.270Z,32.80
2023-02-23T12:59:42.589Z,27.73
2023-02-23T13:02:24.519Z,31.77
2023-02-23T13:05:00.052Z,31.03
2023-02-23T13:07:48.100Z,30.75
2023-02-23T13:10:30.889Z,30.77
2023-02-23T13:13:24.543Z,30.10
2023-02-23T13:16:16.868Z,32.10
2023-02-23T13:19:24.088Z,29.60
2023-02-23T13:22:15.398Z,28.40
2023-02-23T13:24:48.154Z,32.20
2023-02-23T13:27:30.897Z,32.93
2023-02-23T13:29:59.402Z,27.20
2023-02-23T13:32:33.967Z,32.40
2023-02-23T13:35:02.346Z,29.27
2023-02-23T13:37:36.349Z,29.97
2023-02-23T13:40:35.621Z,27.67
2023-02-23T13:43:27.968Z,28.97
2023-02-23T13:46:21.945Z,33.57
2023-02-23T13:49:04.554Z,28.97
2023-02-23T13:51:50.002Z,30.50
2023-02-23T13:54:19.186Z,33.87
2023-02-23T13:56:55.600Z,29.50
2023-02-23T13:59:45.719Z,30.63
2023-02-23T14:02:41.264Z,32.10
2023-02-23T14:05:26.085Z,28.33
2023-02-23T14:08:04.665Z,30.27
2023-02-23T14:10:45.482Z,31.23
2023-02-23T14:13:18.131Z,31.37
2023-02-23T14:15:53.834Z,31.80
2023-02-23T14:18:21.182Z,31.70
2023-02-23T14:21:22.084Z,30.60
2023-02-23T14:23:53.175Z,29.47
2023-02-23T14:26:29.021Z,30.00
2023-02-23T14:29:21.760Z,32.57
2023-02-23T14:32:10.899Z,29.33
2023-02-23T14:35:01.358Z,32.37
2023-02-23T14:37:56.045Z,31.27
2023-02-23T14:40:34.972Z,29.30
2023-02-23T14:43:04.239Z,31.23
2023-02-23T14:45:38.090Z,37.90
2023-02-23T14:48:13.727Z,34.23
2023-02-23T14:50:42.274Z,30.73
2023-02-23T14:53:31.750Z,37.10
2023-02-23T14:55:59.306Z,34.43
2023-02-23T14:58:35.585Z,29.37
2023-02-23T15:01:02.480Z,37.53
2023-02-23T15:03:30.657Z,30.33
2023-02-23T15:06:01.024Z,31.47
2023-02-23T15:08:30.557Z,36.60
2023-02-23T15:11:13.366Z,34.07
2023-02-23T15:13:50.401Z,34.13
2023-02-23T15:16:29.275Z,30.40
2023-02-23T15:18:59.530Z,31.80
2023-02-23T15:21:27.367Z,31.30
2023-02-23T15:24:11.699Z,35.97
2023-02-23T15:26:41.516Z,32.37
2023-02-23T15:29:13.699Z,31.60
2023-02-23T15:31:51.272Z,37.97
2023-02-23T15:34:23.230Z,33.90
2023-02-23T15:37:36.606Z,34.10
2023-02-23T15:40:25.359Z,34.67
2023-02-23T15:42:56.781Z,29.20
2023-02-23T15:45:47.004Z,29.77
2023-02-23T15:48:21.144Z,32.90
2023-02-23T15:50:58.698Z,33.83
2023-02-23T15:53:41.157Z,37.53
2023-02-23T15:56:27.960Z,35.73
2023-02-23T15:59:02.613Z,39.00
2023-02-23T16:01:32.527Z,35.20
2023-02-23T16:04:14.756Z,37.40
2023-02-23T16:07:07.941Z,34.03
2023-02-23T16:09:39.015Z,36.47
2023-02-23T16:12:15.677Z,35.43
2023-02-23T16:14:56.858Z,42.77
2023-02-23T16:17:58.239Z,34.57
2023-02-23T16:21:03.384Z,33.33
2023-02-23T16:23:42.292Z,36.27
2023-02-23T16:26:32.235Z,35.00
2023-02-23T16:29:02.924Z,37.40
2023-02-23T16:32:04.154Z,36.60
2023-02-23T16:34:34.645Z,38.03
2023-02-23T16:37:15.918Z,33.90
2023-02-23T16:39:42.905Z,34.80
2023-02-23T16:42:28.159Z,36.17
2023-02-23T16:44:55.544Z,35.23
2023-02-23T16:47:33.512Z,35.20
2023-02-23T16:50:04.833Z,40.63
2023-02-23T16:52:37.594Z,39.03
2023-02-23T16:55:04.972Z,40.30
2023-02-23T16:57:40.975Z,37.20
2023-02-23T17:00:18.724Z,35.20
2023-02-23T17:02:45.851Z,38.17
2023-02-23T17:05:15.896Z,38.67
2023-02-23T17:07:42.800Z,37.97
2023-02-23T17:10:27.359Z,35.17
2023-02-23T17:13:02.612Z,34.60
2023-02-23T17:15:35.586Z,39.77
2023-02-23T17:18:03.635Z,40.80
2023-02-23T17:20:32.801Z,37.20
2023-02-23T17:23:02.458Z,36.13
2023-02-23T17:25:30.134Z,40.40
2023-02-23T17:27:58.230Z,39.00
2023-02-23T17:30:26.442Z,37.73
2023-02-23T17:32:56.728Z,36.07
2023-02-23T17:35:25.890Z,35.50
2023-02-23T17:37:54.549Z,39.83
2023-02-23T17:40:31.378Z,37.03
2023-02-23T17:43:00.648Z,36.63
2023-02-23T17:45:29.554Z,38.90
2023-02-23T17:47:58.449Z,36.30
2023-02-23T17:50:29.567Z,38.23
2023-02-23T17:52:57.767Z,37.73
2023-02-23T17:55:25.884Z,40.00
2023-02-23T17:57:52.884Z,37.30
2023-02-23T18:00:20.913Z,38.20
2023-02-23T18:02:48.306Z,39.83
2023-02-23T18:05:16.280Z,36.70
2023-02-23T18:07:43.456Z,37.30
2023-02-23T18:10:11.718Z,44.30
2023-02-23T18:12:39.287Z,44.03
2023-02-23T18:15:07.507Z,40.00
2023-02-23T18:17:37.218Z,43.37
2023-02-23T18:20:06.634Z,39.37
2023-02-23T18:22:33.817Z,38.00
2023-02-23T18:25:00.788Z,38.10
2023-02-23T18:27:27.865Z,45.67
2023-02-23T18:29:54.869Z,40.50
2023-02-23T18:32:21.934Z,40.90
2023-02-23T18:34:49.084Z,42.90
2023-02-23T18:37:25.500Z,42.80
2023-02-23T18:39:54.402Z,46.37
2023-02-23T18:42:21.468Z,49.00
2023-02-23T18:44:48.947Z,46.67
2023-02-23T18:47:15.973Z,52.40
2023-02-23T18:49:43.221Z,40.80
2023-02-23T18:52:11.403Z,39.50
2023-02-23T18:54:41.011Z,42.60
2023-02-23T18:57:08.081Z,46.07
2023-02-23T18:59:35.063Z,48.60
2023-02-23T19:02:02.026Z,47.47
2023-02-23T19:04:29.146Z,49.87
2023-02-23T19:06:56.102Z,49.10
2023-02-23T19:09:23.069Z,51.40
2023-02-23T19:11:51.539Z,41.60
2023-02-23T19:14:22.148Z,45.27
2023-02-23T19:16:53.216Z,46.40
2023-02-23T19:19:20.070Z,58.13
2023-02-23T19:21:47.086Z,48.07
2023-02-23T19:24:14.620Z,51.17
2023-02-23T19:29:22.753Z,53.27
2023-02-23T19:31:50.384Z,48.70
2023-02-23T19:34:17.712Z,55.60
2023-02-23T19:36:46.544Z,58.03
2023-02-23T19:39:16.233Z,58.30
2023-02-23T19:41:47.347Z,56.30
2023-02-23T19:44:14.420Z,46.57
2023-02-23T19:46:43.172Z,54.80
2023-02-23T19:49:10.451Z,57.33
2023-02-23T19:51:37.868Z,54.73
2023-02-23T19:54:06.328Z,48.37
2023-02-23T19:56:34.229Z,46.07
2023-02-23T19:59:02.446Z,53.63
2023-02-23T20:01:30.404Z,46.63
2023-02-23T20:04:02.456Z,51.43
2023-02-23T20:06:34.808Z,45.33
2023-02-23T20:09:06.307Z,44.77
2023-02-23T20:11:34.223Z,47.07
2023-02-23T20:14:03.817Z,48.70
2023-02-23T20:16:31.734Z,47.47
2023-02-23T20:18:59.597Z,47.90
2023-02-23T20:21:30.498Z,49.57
2023-02-23T20:24:00.044Z,45.77
2023-02-23T20:26:34.371Z,45.87
2023-02-23T20:29:03.939Z,46.43
2023-02-23T20:31:36.752Z,46.63
2023-02-23T20:34:11.055Z,47.90
2023-02-23T20:36:40.243Z,47.60
2023-02-23T20:39:09.599Z,53.17
2023-02-23T20:41:48.294Z,53.97
2023-02-23T20:44:27.173Z,59.60
2023-02-23T20:47:01.119Z,54.47
2023-02-23T20:49:29.844Z,55.10
2023-02-23T20:51:59.145Z,57.30
2023-02-23T20:54:26.115Z,54.30
2023-02-23T20:57:11.164Z,51.40
2023-02-23T20:59:41.255Z,46.60
2023-02-23T21:02:13.904Z,52.90
2023-02-23T21:04:43.545Z,51.13
2023-02-23T21:07:13.886Z,59.60
2023-02-23T21:09:47.804Z,57.40
2023-02-23T21:12:14.783Z,55.67
2023-02-23T21:14:45.854Z,49.80
2023-02-23T21:17:13.089Z,46.70
2023-02-23T21:19:43.859Z,51.10
2023-02-23T21:22:13.793Z,48.40
2023-02-23T21:24:41.344Z,50.40
2023-02-23T21:27:13.192Z,48.03
2023-02-23T21:29:42.195Z,47.50
2023-02-23T21:32:14.355Z,47.60
2023-02-23T21:34:41.452Z,53.67
2023-02-23T21:37:08.556Z,48.77
2023-02-23T21:39:35.520Z,50.00
2023-02-23T21:42:02.570Z,48.70
2023-02-23T21:44:29.506Z,47.43
2023-02-23T21:46:56.497Z,49.10
2023-02-23T21:49:23.405Z,45.27
2023-02-23T21:51:52.557Z,45.67
2023-02-23T21:54:21.614Z,51.50
2023-02-23T21:56:48.594Z,46.77
2023-02-23T21:59:15.703Z,46.80
2023-02-23T22:01:43.626Z,57.30
2023-02-23T22:04:14.384Z,52.10
2023-02-23T22:06:44.346Z,53.47
2023-02-23T22:09:16.058Z,52.67
2023-02-23T22:11:46.909Z,50.77
2023-02-23T22:14:18.079Z,53.67
2023-02-23T22:16:46.179Z,54.07
2023-02-23T22:19:13.744Z,58.03
2023-02-23T22:21:42.100Z,55.50
2023-02-23T22:24:12.076Z,53.43
2023-02-23T22:26:54.203Z,56.33
2023-02-23T22:29:24.405Z,49.40
2023-02-23T22:31:52.331Z,54.90
2023-02-23T22:34:19.476Z,51.00
2023-02-23T22:36:48.713Z,49.60
2023-02-23T22:39:16.527Z,47.83
2023-02-23T22:41:43.488Z,49.27
2023-02-23T22:44:14.367Z,52.63
2023-02-23T22:46:42.292Z,50.67
2023-02-23T22:49:11.220Z,51.43
2023-02-23T22:51:39.294Z,53.40
2023-02-23T22:54:06.305Z,51.87
2023-02-23T22:56:36.504Z,56.00
2023-02-23T22:59:08.879Z,55.83
2023-02-23T23:01:38.984Z,64.00
2023-02-23T23:04:10.515Z,56.80
2023-02-23T23:06:41.815Z,59.37
2023-02-23T23:09:12.184Z,67.13
2023-02-23T23:11:44.421Z,63.10
2023-02-23T23:14:12.656Z,59.47
2023-02-23T23:16:48.553Z,49.73
2023-02-23T23:19:26.398Z,50.97
2023-02-23T23:21:55.902Z,53.47
2023-02-23T23:24:25.458Z,47.47
2023-02-23T23:26:55.752Z,47.47
2023-02-23T23:29:25.906Z,46.97
2023-02-23T23:31:53.817Z,46.10
2023-02-23T23:34:21.974Z,61.10
2023-02-23T23:36:50.390Z,52.90
2023-02-23T23:39:20.581Z,47.87
2023-02-23T23:41:50.017Z,54.37
2023-02-23T23:44:21.156Z,51.00
2023-02-23T23:46:51.032Z,49.60
2023-02-23T23:49:21.327Z,55.07
2023-02-23T23:51:52.604Z,54.47
2023-02-23T23:54:27.365Z,52.77
2023-02-23T23:56:54.863Z,51.57
2023-02-23T23:59:26.162Z,51.87
